createdAt,value
2023-02-05T00:02:18.110Z,64.57
2023-02-05T00:04:46.234Z,66.31
2023-02-05T00:07:14.330Z,66.85
2023-02-05T00:09:43.794Z,67.57
2023-02-05T00:12:11.986Z,67.59
2023-02-05T00:14:40.064Z,67.16
2023-02-05T00:17:08.165Z,67.68
2023-02-05T00:19:36.343Z,67.23
2023-02-05T00:22:04.465Z,64.99
2023-02-05T00:24:32.577Z,65.99
2023-02-05T00:27:02.143Z,66.62
2023-02-05T00:29:30.233Z,64.87
2023-02-05T00:31:58.353Z,64.86
2023-02-05T00:34:26.550Z,65.10
2023-02-05T00:36:54.647Z,63.64
2023-02-05T00:39:23.967Z,63.15
2023-02-05T00:41:52.707Z,62.92
2023-02-05T00:44:22.193Z,62.79
2023-02-05T00:46:50.479Z,62.76
2023-02-05T00:49:18.697Z,63.69
2023-02-05T00:51:46.796Z,63.93
2023-02-05T00:54:14.952Z,61.69
2023-02-05T00:56:43.098Z,63.83
2023-02-05T00:59:11.904Z,62.83
2023-02-05T01:01:41.476Z,63.20
2023-02-05T01:04:09.742Z,62.58
2023-02-05T01:06:37.891Z,63.96
2023-02-05T01:09:06.039Z,63.47
2023-02-05T01:11:34.101Z,64.88
2023-02-05T01:14:02.347Z,64.93
2023-02-05T01:16:30.486Z,63.80
2023-02-05T01:19:00.846Z,63.00
2023-02-05T01:21:29.453Z,61.72
2023-02-05T01:23:57.925Z,60.86
2023-02-05T01:26:25.957Z,59.57
2023-02-05T01:28:54.053Z,59.62
2023-02-05T01:31:22.440Z,60.36
2023-02-05T01:33:50.612Z,61.80
2023-02-05T01:36:20.113Z,63.26
2023-02-05T01:38:48.962Z,64.30
2023-02-05T01:41:17.288Z,65.17
2023-02-05T01:43:45.463Z,65.82
2023-02-05T01:46:25.392Z,65.18
2023-02-05T01:48:58.909Z,66.51
2023-02-05T01:51:31.592Z,67.18
2023-02-05T01:53:59.906Z,67.14
2023-02-05T01:56:33.297Z,67.11
2023-02-05T01:59:08.500Z,69.10
2023-02-05T02:01:38.707Z,69.18
2023-02-05T02:04:07.241Z,70.41
2023-02-05T02:06:38.651Z,70.92
2023-02-05T02:09:08.285Z,71.08
2023-02-05T02:11:40.462Z,71.82
2023-02-05T02:14:10.577Z,72.85
2023-02-05T02:16:40.741Z,73.14
2023-02-05T02:19:18.041Z,73.61
2023-02-05T02:22:30.879Z,73.53
2023-02-05T02:25:31.258Z,73.24
2023-02-05T02:28:05.156Z,73.50
2023-02-05T02:30:40.955Z,73.65
2023-02-05T02:33:15.019Z,70.22
2023-02-05T02:35:48.453Z,70.63
2023-02-05T02:38:23.519Z,70.69
2023-02-05T02:40:55.676Z,70.17
2023-02-05T02:43:31.791Z,68.91
2023-02-05T02:46:02.740Z,71.36
2023-02-05T02:48:33.873Z,70.27
2023-02-05T02:51:04.448Z,69.72
2023-02-05T02:53:37.803Z,69.28
2023-02-05T02:56:09.184Z,68.49
2023-02-05T02:58:44.003Z,69.94
2023-02-05T03:01:17.642Z,69.58
2023-02-05T03:03:52.672Z,71.21
2023-02-05T03:06:23.350Z,71.11
2023-02-05T03:08:57.264Z,68.92
2023-02-05T03:11:27.173Z,67.66
2023-02-05T03:13:58.190Z,67.24
2023-02-05T03:16:30.856Z,68.24
2023-02-05T03:18:59.696Z,68.65
2023-02-05T03:21:35.026Z,69.40
2023-02-05T03:24:03.415Z,69.19
2023-02-05T03:26:35.193Z,68.72
2023-02-05T03:29:19.576Z,69.98
2023-02-05T03:32:02.188Z,69.87
2023-02-05T03:34:41.309Z,70.38
2023-02-05T03:37:27.898Z,71.22
2023-02-05T03:40:07.043Z,72.08
2023-02-05T03:42:47.315Z,71.01
2023-02-05T03:45:27.435Z,70.52
2023-02-05T03:48:13.369Z,72.75
2023-02-05T03:50:45.467Z,72.26
2023-02-05T03:53:24.479Z,72.84
2023-02-05T03:56:02.211Z,71.66
2023-02-05T03:58:35.659Z,73.50
2023-02-05T04:01:08.507Z,74.76
2023-02-05T04:03:36.819Z,74.78
2023-02-05T04:06:05.858Z,74.56
2023-02-05T04:08:34.364Z,75.11
2023-02-05T04:11:02.580Z,74.41
2023-02-05T04:13:30.967Z,73.77
2023-02-05T04:15:59.822Z,75.69
2023-02-05T04:18:29.374Z,75.25
2023-02-05T04:20:59.179Z,73.76
2023-02-05T04:23:29.612Z,71.58
2023-02-05T04:25:57.888Z,71.75
2023-02-05T04:28:33.621Z,72.68
2023-02-05T04:31:07.392Z,74.67
2023-02-05T04:33:37.202Z,74.39
2023-02-05T04:36:06.135Z,74.49
2023-02-05T04:38:34.577Z,74.55
2023-02-05T04:41:02.728Z,75.10
2023-02-05T04:43:30.834Z,75.56
2023-02-05T04:45:58.973Z,71.66
2023-02-05T04:48:27.153Z,71.11
2023-02-05T04:50:56.578Z,72.87
2023-02-05T04:53:24.782Z,72.88
2023-02-05T04:55:54.988Z,72.88
2023-02-05T04:58:23.112Z,75.87
2023-02-05T05:00:51.119Z,75.25
2023-02-05T05:03:19.159Z,76.76
2023-02-05T05:05:47.270Z,77.87
2023-02-05T05:08:16.719Z,76.22
2023-02-05T05:10:44.835Z,77.31
2023-02-05T05:13:12.895Z,76.00
2023-02-05T05:15:41.416Z,76.42
2023-02-05T05:18:09.528Z,77.55
2023-02-05T05:20:37.623Z,79.44
2023-02-05T05:23:05.674Z,81.22
2023-02-05T05:25:35.571Z,82.24
2023-02-05T05:28:03.793Z,83.24
2023-02-05T05:30:31.869Z,82.64
2023-02-05T05:32:59.914Z,84.16
2023-02-05T05:35:27.980Z,84.30
2023-02-05T05:37:58.017Z,85.03
2023-02-05T05:40:40.446Z,86.13
2023-02-05T05:43:31.160Z,88.43
2023-02-05T05:45:59.318Z,89.83
2023-02-05T05:48:27.641Z,90.26
2023-02-05T05:50:55.790Z,91.25
2023-02-05T05:53:24.608Z,90.83
2023-02-05T05:55:52.699Z,91.29
2023-02-05T05:58:22.219Z,91.82
2023-02-05T06:00:50.351Z,92.42
2023-02-05T06:03:18.416Z,92.69
2023-02-05T06:05:46.537Z,92.93
2023-02-05T06:08:16.341Z,93.03
2023-02-05T06:10:44.536Z,94.24
2023-02-05T06:13:12.711Z,94.30
2023-02-05T06:15:42.210Z,94.47
2023-02-05T06:18:10.341Z,94.26
2023-02-05T06:20:38.413Z,94.36
2023-02-05T06:23:06.616Z,94.92
2023-02-05T06:25:34.971Z,95.79
2023-02-05T06:28:03.234Z,96.22
2023-02-05T06:30:31.427Z,96.41
2023-02-05T06:33:00.897Z,95.80
2023-02-05T06:35:29.152Z,95.88
2023-02-05T06:37:57.242Z,95.43
2023-02-05T06:40:25.997Z,94.28
2023-02-05T06:42:54.753Z,94.65
2023-02-05T06:45:23.238Z,94.22
2023-02-05T06:47:53.285Z,92.26
2023-02-05T06:50:22.773Z,91.28
2023-02-05T06:52:51.393Z,90.94
2023-02-05T06:55:19.746Z,89.90
2023-02-05T06:57:47.918Z,89.56
2023-02-05T07:00:17.453Z,89.31
2023-02-05T07:02:45.585Z,89.11
2023-02-05T07:05:13.842Z,89.50
2023-02-05T07:07:43.320Z,89.68
2023-02-05T07:10:11.521Z,88.76
2023-02-05T07:12:39.592Z,87.92
2023-02-05T07:15:08.307Z,87.70
2023-02-05T07:17:36.377Z,88.14
2023-02-05T07:20:04.857Z,87.52
2023-02-05T07:22:33.056Z,85.14
2023-02-05T07:25:04.622Z,84.89
2023-02-05T07:27:32.955Z,84.84
2023-02-05T07:30:01.274Z,84.68
2023-02-05T07:32:29.481Z,84.56
2023-02-05T07:34:57.575Z,85.45
2023-02-05T07:37:25.720Z,84.01
2023-02-05T07:39:53.849Z,82.68
2023-02-05T07:42:23.316Z,82.04
2023-02-05T07:44:57.420Z,80.13
2023-02-05T07:47:25.526Z,76.20
2023-02-05T07:49:53.692Z,75.45
2023-02-05T07:52:21.797Z,77.17
2023-02-05T07:54:50.726Z,75.45
2023-02-05T07:57:18.860Z,74.68
2023-02-05T07:59:48.373Z,73.89
2023-02-05T08:02:16.515Z,71.87
2023-02-05T08:04:44.704Z,70.97
2023-02-05T08:07:13.681Z,69.57
2023-02-05T08:09:41.903Z,69.63
2023-02-05T08:12:10.167Z,68.19
2023-02-05T08:14:38.273Z,67.40
2023-02-05T08:17:07.833Z,66.88
2023-02-05T08:19:36.115Z,67.05
2023-02-05T08:22:04.300Z,66.31
2023-02-05T08:24:32.752Z,63.92
2023-02-05T08:27:00.970Z,62.63
2023-02-05T08:29:29.070Z,61.80
2023-02-05T08:31:57.549Z,61.93
2023-02-05T08:34:27.019Z,61.38
2023-02-05T08:36:55.168Z,59.15
2023-02-05T08:39:26.144Z,58.48
2023-02-05T08:41:56.736Z,57.90
2023-02-05T08:44:25.209Z,56.34
2023-02-05T08:46:53.288Z,55.98
2023-02-05T08:49:21.548Z,58.08
2023-02-05T08:51:51.049Z,56.80
2023-02-05T08:54:19.286Z,55.88
2023-02-05T08:56:53.027Z,54.93
2023-02-05T08:59:21.776Z,54.92
2023-02-05T09:01:50.226Z,55.38
2023-02-05T09:04:20.464Z,53.23
2023-02-05T09:06:50.308Z,53.75
2023-02-05T09:09:19.029Z,52.23
2023-02-05T09:11:47.764Z,50.53
2023-02-05T09:14:16.857Z,50.84
2023-02-05T09:16:45.039Z,51.33
2023-02-05T09:19:13.165Z,50.36
2023-02-05T09:21:42.280Z,51.29
2023-02-05T09:24:11.746Z,51.21
2023-02-05T09:26:39.929Z,49.68
2023-02-05T09:29:08.018Z,48.06
2023-02-05T09:31:37.132Z,47.36
2023-02-05T09:34:05.289Z,46.96
2023-02-05T09:36:33.520Z,45.76
2023-02-05T09:39:14.030Z,46.74
2023-02-05T09:41:57.261Z,46.38
2023-02-05T09:44:42.764Z,47.30
2023-02-05T09:47:15.742Z,46.10
2023-02-05T09:49:51.398Z,43.82
2023-02-05T09:52:23.104Z,43.22
2023-02-05T09:54:57.037Z,42.64
2023-02-05T09:57:34.580Z,44.08
2023-02-05T10:00:03.621Z,42.56
2023-02-05T10:02:50.141Z,43.35
2023-02-05T10:05:22.504Z,41.63
2023-02-05T10:07:57.483Z,41.44
2023-02-05T10:10:28.102Z,42.82
2023-02-05T10:13:28.687Z,39.73
2023-02-05T10:16:30.184Z,41.74
2023-02-05T10:19:15.633Z,39.96
2023-02-05T10:21:57.558Z,41.58
2023-02-05T10:24:41.740Z,39.58
2023-02-05T10:27:18.589Z,40.33
2023-02-05T10:29:57.339Z,40.80
2023-02-05T10:32:29.113Z,40.95
2023-02-05T10:34:59.770Z,40.73
2023-02-05T10:37:39.579Z,40.02
2023-02-05T10:40:14.774Z,39.31
2023-02-05T10:42:48.048Z,37.74
2023-02-05T10:45:21.299Z,38.81
2023-02-05T10:48:07.083Z,39.74
2023-02-05T10:50:49.949Z,41.08
2023-02-05T10:53:20.756Z,39.52
2023-02-05T10:55:49.495Z,40.70
2023-02-05T10:58:37.111Z,38.22
2023-02-05T11:01:07.878Z,38.11
2023-02-05T11:03:37.195Z,37.72
2023-02-05T11:06:11.263Z,38.03
2023-02-05T11:08:42.436Z,38.44
2023-02-05T11:11:21.914Z,39.15
2023-02-05T11:13:54.297Z,38.21
2023-02-05T11:16:25.039Z,36.41
2023-02-05T11:18:59.086Z,37.26
2023-02-05T11:21:47.372Z,35.65
2023-02-05T11:24:25.944Z,36.32
2023-02-05T11:27:14.821Z,33.54
2023-02-05T11:29:43.237Z,33.80
2023-02-05T11:32:21.865Z,34.24
2023-02-05T11:34:50.081Z,35.60
2023-02-05T11:37:20.464Z,35.52
2023-02-05T11:39:54.974Z,34.39
2023-02-05T11:42:26.152Z,35.70
2023-02-05T11:44:56.758Z,34.48
2023-02-05T11:47:30.062Z,35.04
2023-02-05T11:49:59.740Z,34.54
2023-02-05T11:52:30.179Z,34.99
2023-02-05T11:54:59.094Z,34.37
2023-02-05T11:57:35.724Z,36.28
2023-02-05T12:00:21.172Z,35.64
2023-02-05T12:02:54.142Z,35.02
2023-02-05T12:05:25.927Z,36.39
2023-02-05T12:08:02.024Z,35.50
2023-02-05T12:10:38.449Z,35.28
2023-02-05T12:13:19.889Z,34.98
2023-02-05T12:15:55.602Z,35.44
2023-02-05T12:18:37.222Z,35.19
2023-02-05T12:21:16.012Z,36.79
2023-02-05T12:24:08.841Z,36.23
2023-02-05T12:26:40.985Z,35.43
2023-02-05T12:29:23.863Z,36.54
2023-02-05T12:32:05.268Z,36.26
2023-02-05T12:34:44.147Z,34.92
2023-02-05T12:37:27.972Z,34.79
2023-02-05T12:40:06.910Z,34.00
2023-02-05T12:42:39.385Z,33.25
2023-02-05T12:45:35.021Z,32.08
2023-02-05T12:48:19.208Z,33.53
2023-02-05T12:51:00.772Z,31.57
2023-02-05T12:53:49.280Z,32.01
2023-02-05T12:56:40.066Z,34.45
2023-02-05T12:59:16.638Z,33.66
2023-02-05T13:01:54.786Z,32.96
2023-02-05T13:04:29.921Z,34.48
2023-02-05T13:07:11.830Z,35.61
2023-02-05T13:09:51.148Z,33.31
2023-02-05T13:12:23.890Z,32.66
2023-02-05T13:15:02.505Z,34.99
2023-02-05T13:17:35.577Z,33.12
2023-02-05T13:20:08.312Z,35.52
2023-02-05T13:23:01.850Z,32.75
2023-02-05T13:25:58.889Z,34.29
2023-02-05T13:28:43.132Z,35.35
2023-02-05T13:31:20.270Z,33.82
2023-02-05T13:33:49.610Z,35.50
2023-02-05T13:36:57.532Z,34.72
2023-02-05T13:39:51.539Z,35.10
2023-02-05T13:42:34.299Z,35.21
2023-02-05T13:45:50.143Z,35.08
2023-02-05T13:48:42.198Z,36.52
2023-02-05T13:51:41.666Z,34.99
2023-02-05T13:54:56.000Z,35.33
2023-02-05T13:58:06.012Z,35.44
2023-02-05T14:00:36.253Z,34.89
2023-02-05T14:03:09.111Z,35.30
2023-02-05T14:05:41.091Z,34.91
2023-02-05T14:08:22.881Z,35.17
2023-02-05T14:11:01.010Z,35.97
2023-02-05T14:13:34.509Z,36.49
2023-02-05T14:16:34.904Z,37.28
2023-02-05T14:19:19.957Z,36.18
2023-02-05T14:22:07.510Z,36.21
2023-02-05T14:24:48.030Z,36.27
2023-02-05T14:27:57.330Z,36.07
2023-02-05T14:30:53.084Z,36.65
2023-02-05T14:33:38.722Z,36.60
2023-02-05T14:36:34.186Z,37.43
2023-02-05T14:39:19.981Z,36.29
2023-02-05T14:41:53.518Z,36.85
2023-02-05T14:44:27.319Z,37.13
2023-02-05T14:47:04.536Z,38.47
2023-02-05T14:49:42.311Z,37.97
2023-02-05T14:52:28.106Z,38.48
2023-02-05T14:55:01.308Z,38.72
2023-02-05T14:57:38.765Z,38.89
2023-02-05T15:00:24.606Z,39.10
2023-02-05T15:03:17.333Z,39.47
2023-02-05T15:05:54.156Z,40.24
2023-02-05T15:08:31.813Z,40.05
2023-02-05T15:11:09.784Z,41.23
2023-02-05T15:13:39.264Z,44.83
2023-02-05T15:16:24.068Z,45.19
2023-02-05T15:18:57.540Z,45.52
2023-02-05T15:21:29.189Z,45.92
2023-02-05T15:24:02.535Z,45.47
2023-02-05T15:26:41.558Z,46.76
2023-02-05T15:29:18.256Z,48.83
2023-02-05T15:31:52.358Z,49.60
2023-02-05T15:34:38.340Z,49.40
2023-02-05T15:37:17.022Z,50.74
2023-02-05T15:39:52.695Z,51.73
2023-02-05T15:42:31.053Z,53.70
2023-02-05T15:45:17.436Z,54.56
2023-02-05T15:47:47.535Z,55.64
2023-02-05T15:50:19.456Z,56.67
2023-02-05T15:52:49.196Z,56.11
2023-02-05T15:55:22.654Z,56.96
2023-02-05T15:57:53.623Z,57.70
2023-02-05T16:00:28.837Z,56.47
2023-02-05T16:03:00.098Z,56.92
2023-02-05T16:05:34.467Z,58.72
2023-02-05T16:08:06.069Z,59.48
2023-02-05T16:10:38.384Z,59.18
2023-02-05T16:13:10.149Z,60.49
2023-02-05T16:15:47.039Z,62.38
2023-02-05T16:18:22.936Z,62.81
2023-02-05T16:20:59.130Z,63.92
2023-02-05T16:23:33.177Z,63.83
2023-02-05T16:26:06.781Z,63.70
2023-02-05T16:28:42.191Z,64.87
2023-02-05T16:31:19.445Z,65.75
2023-02-05T16:33:53.693Z,65.64
2023-02-05T16:36:31.327Z,64.42
2023-02-05T16:39:03.603Z,66.59
2023-02-05T16:41:37.243Z,66.71
2023-02-05T16:44:09.910Z,68.74
2023-02-05T16:46:41.330Z,68.87
2023-02-05T16:49:32.496Z,69.70
2023-02-05T16:52:03.883Z,70.88
2023-02-05T16:54:36.495Z,71.91
2023-02-05T16:57:10.451Z,72.09
2023-02-05T16:59:52.279Z,71.93
2023-02-05T17:02:30.214Z,70.90
2023-02-05T17:05:02.026Z,70.70
2023-02-05T17:07:34.660Z,69.18
2023-02-05T17:10:16.811Z,69.48
2023-02-05T17:12:58.772Z,71.45
2023-02-05T17:15:32.272Z,71.31
2023-02-05T17:18:06.906Z,71.09
2023-02-05T17:20:37.507Z,71.32
2023-02-05T17:23:16.291Z,71.11
2023-02-05T17:25:53.853Z,72.33
2023-02-05T17:28:26.621Z,70.50
2023-02-05T17:30:57.832Z,69.30
2023-02-05T17:33:29.321Z,70.14
2023-02-05T17:35:59.352Z,71.78
2023-02-05T17:38:34.050Z,72.53
2023-02-05T17:41:24.339Z,73.64
2023-02-05T17:43:54.698Z,73.48
2023-02-05T17:46:23.474Z,73.96
2023-02-05T17:48:53.016Z,73.96
2023-02-05T17:51:26.970Z,73.73
2023-02-05T17:53:58.588Z,73.22
2023-02-05T17:56:28.413Z,73.58
2023-02-05T17:59:01.643Z,74.42
2023-02-05T18:01:31.763Z,74.09
2023-02-05T18:04:02.728Z,73.03
2023-02-05T18:06:33.002Z,73.26
2023-02-05T18:09:04.735Z,73.68
2023-02-05T18:11:34.083Z,73.37
2023-02-05T18:14:03.468Z,74.96
2023-02-05T18:16:33.684Z,75.12
2023-02-05T18:19:04.383Z,74.26
2023-02-05T18:21:35.250Z,75.11
2023-02-05T18:24:07.167Z,76.56
2023-02-05T18:26:38.892Z,76.54
2023-02-05T18:29:10.148Z,76.52
2023-02-05T18:31:40.161Z,76.83
2023-02-05T18:34:09.688Z,77.41
2023-02-05T18:36:39.969Z,76.14
2023-02-05T18:39:19.342Z,77.58
2023-02-05T18:41:49.733Z,77.36
2023-02-05T18:44:22.369Z,76.97
2023-02-05T18:46:55.153Z,77.71
2023-02-05T18:49:27.447Z,78.15
2023-02-05T18:51:57.304Z,78.33
2023-02-05T18:54:28.397Z,78.07
2023-02-05T18:56:59.355Z,78.49
2023-02-05T18:59:29.188Z,79.73
2023-02-05T19:01:59.649Z,78.93
2023-02-05T19:04:33.296Z,77.75
2023-02-05T19:07:02.529Z,77.61
2023-02-05T19:09:34.216Z,77.69
2023-02-05T19:12:04.277Z,78.68
2023-02-05T19:14:34.938Z,78.02
2023-02-05T19:17:03.964Z,79.25
2023-02-05T19:19:34.567Z,77.90
2023-02-05T19:22:06.722Z,77.37
2023-02-05T19:24:40.961Z,78.03
2023-02-05T19:27:11.533Z,78.97
2023-02-05T19:29:41.622Z,79.25
2023-02-05T19:32:11.806Z,78.59
2023-02-05T19:34:47.113Z,79.48
2023-02-05T19:37:18.176Z,79.02
2023-02-05T19:39:51.132Z,79.12
2023-02-05T19:42:20.645Z,77.81
2023-02-05T19:44:49.984Z,78.09
2023-02-05T19:47:24.954Z,76.68
2023-02-05T19:49:56.649Z,79.31
2023-02-05T19:52:26.680Z,78.71
2023-02-05T19:54:58.734Z,80.11
2023-02-05T19:57:28.139Z,80.38
2023-02-05T19:59:57.320Z,80.42
2023-02-05T20:02:27.874Z,78.85
2023-02-05T20:04:58.804Z,80.55
2023-02-05T20:07:29.834Z,80.37
2023-02-05T20:10:07.177Z,79.16
2023-02-05T20:12:37.254Z,81.02
2023-02-05T20:15:08.144Z,81.57
2023-02-05T20:17:37.859Z,82.25
2023-02-05T20:20:14.133Z,82.48
2023-02-05T20:22:46.993Z,82.46
2023-02-05T20:25:18.481Z,82.68
2023-02-05T20:27:48.019Z,83.23
2023-02-05T20:30:36.728Z,83.95
2023-02-05T20:33:08.543Z,84.55
2023-02-05T20:35:41.074Z,84.70
2023-02-05T20:38:11.575Z,84.46
2023-02-05T20:40:43.336Z,85.08
2023-02-05T20:43:13.446Z,85.50
2023-02-05T20:45:42.526Z,86.80
2023-02-05T20:48:11.836Z,86.12
2023-02-05T20:50:41.265Z,85.91
2023-02-05T20:53:11.626Z,87.23
2023-02-05T20:55:42.565Z,88.50
2023-02-05T20:58:11.785Z,87.85
2023-02-05T21:00:40.475Z,88.13
2023-02-05T21:03:09.055Z,88.33
2023-02-05T21:05:38.500Z,88.67
2023-02-05T21:08:08.488Z,88.92
2023-02-05T21:10:37.887Z,88.21
2023-02-05T21:13:08.892Z,89.00
2023-02-05T21:15:37.732Z,89.39
2023-02-05T21:18:07.069Z,89.72
2023-02-05T21:20:40.880Z,89.58
2023-02-05T21:23:10.157Z,89.47
2023-02-05T21:25:40.203Z,89.13
2023-02-05T21:28:11.022Z,90.51
2023-02-05T21:30:41.085Z,91.13
2023-02-05T21:33:10.008Z,91.43
2023-02-05T21:35:39.901Z,90.47
2023-02-05T21:38:08.379Z,91.29
2023-02-05T21:40:40.329Z,89.70
2023-02-05T21:43:10.034Z,89.88
2023-02-05T21:45:38.793Z,90.49
2023-02-05T21:48:08.054Z,91.35
2023-02-05T21:50:36.469Z,90.87
2023-02-05T21:53:04.883Z,91.43
2023-02-05T21:55:34.062Z,91.70
2023-02-05T21:58:02.396Z,92.17
2023-02-05T22:00:32.004Z,92.20
2023-02-05T22:03:00.111Z,93.44
2023-02-05T22:05:28.264Z,93.61
2023-02-05T22:07:56.345Z,93.94
2023-02-05T22:10:24.465Z,92.39
2023-02-05T22:12:52.634Z,92.09
2023-02-05T22:15:20.820Z,92.82
2023-02-05T22:17:50.488Z,93.21
2023-02-05T22:20:23.146Z,94.42
2023-02-05T22:22:51.567Z,94.71
2023-02-05T22:25:19.790Z,94.58
2023-02-05T22:27:47.987Z,94.72
2023-02-05T22:30:16.130Z,94.44
2023-02-05T22:32:44.247Z,93.20
2023-02-05T22:35:13.892Z,93.61
2023-02-05T22:37:42.038Z,94.53
2023-02-05T22:40:11.087Z,95.57
2023-02-05T22:42:39.256Z,95.69
2023-02-05T22:45:07.888Z,95.06
2023-02-05T22:47:36.093Z,95.35
2023-02-05T22:50:04.257Z,95.86
2023-02-05T22:52:33.714Z,95.85
2023-02-05T22:55:01.836Z,95.83
2023-02-05T22:57:29.948Z,95.73
2023-02-05T22:59:59.203Z,96.31
2023-02-05T23:02:27.280Z,95.87
2023-02-05T23:04:55.386Z,95.88
2023-02-05T23:07:23.474Z,96.07
2023-02-05T23:09:53.049Z,96.69
2023-02-05T23:12:21.106Z,96.46
2023-02-05T23:14:49.193Z,97.00
2023-02-05T23:17:17.274Z,96.97
2023-02-05T23:19:47.996Z,96.97
2023-02-05T23:22:16.050Z,96.99
2023-02-05T23:24:44.129Z,97.51
2023-02-05T23:27:13.700Z,98.03
2023-02-05T23:29:41.735Z,98.47
2023-02-05T23:32:15.069Z,99.50
2023-02-05T23:34:43.307Z,99.92
2023-02-05T23:37:11.669Z,99.27
2023-02-05T23:39:39.785Z,98.84
2023-02-05T23:42:07.904Z,99.03
2023-02-05T23:44:37.378Z,98.93
2023-02-05T23:47:05.589Z,98.65
2023-02-05T23:49:33.714Z,98.89
2023-02-05T23:52:01.842Z,99.34
2023-02-05T23:54:30.007Z,99.88
2023-02-05T23:56:58.217Z,99.08
2023-02-05T23:59:26.306Z,100.00
